createdAt,value
2018-05-17T00:01:45.297Z,15.97
2018-05-17T00:04:12.695Z,15.82
2018-05-17T00:06:40.083Z,16.02
2018-05-17T00:09:07.483Z,15.95
2018-05-17T00:11:34.883Z,15.99
2018-05-17T00:14:02.269Z,15.91
2018-05-17T00:16:29.667Z,15.75
2018-05-17T00:18:57.055Z,15.66
2018-05-17T00:21:24.470Z,15.59
2018-05-17T00:23:51.871Z,15.57
2018-05-17T00:26:19.257Z,15.59
2018-05-17T00:28:46.657Z,15.71
2018-05-17T00:31:14.049Z,15.84
2018-05-17T00:33:41.443Z,15.65
2018-05-17T00:36:08.868Z,15.68
2018-05-17T00:38:36.261Z,15.64
2018-05-17T00:41:03.655Z,15.73
2018-05-17T00:43:31.045Z,15.69
2018-05-17T00:45:58.440Z,15.93
2018-05-17T00:48:25.849Z,15.98
2018-05-17T00:50:53.248Z,15.98
2018-05-17T00:53:31.612Z,16.00
2018-05-17T00:55:59.019Z,16.03
2018-05-17T00:58:26.408Z,16.00
2018-05-17T01:00:53.821Z,15.97
2018-05-17T01:03:21.236Z,15.88
2018-05-17T01:05:48.640Z,15.84
2018-05-17T01:08:16.065Z,15.92
2018-05-17T01:10:43.476Z,15.81
2018-05-17T01:13:10.867Z,15.85
2018-05-17T01:15:38.260Z,15.95
2018-05-17T01:18:05.662Z,15.93
2018-05-17T01:20:33.047Z,15.75
2018-05-17T01:23:00.449Z,15.68
2018-05-17T01:25:27.862Z,15.73
2018-05-17T01:27:55.255Z,15.82
2018-05-17T01:30:22.649Z,15.76
2018-05-17T01:32:50.051Z,15.87
2018-05-17T01:35:17.431Z,15.81
2018-05-17T01:37:56.579Z,15.67
2018-05-17T01:40:23.963Z,15.68
2018-05-17T01:42:51.361Z,15.73
2018-05-17T01:45:18.783Z,15.72
2018-05-17T01:47:46.193Z,15.82
2018-05-17T01:50:13.600Z,15.70
2018-05-17T01:52:41.114Z,15.72
2018-05-17T01:55:08.506Z,15.73
2018-05-17T01:57:35.893Z,15.70
2018-05-17T02:00:03.280Z,15.79
2018-05-17T02:02:30.683Z,15.83
2018-05-17T02:04:58.089Z,15.84
2018-05-17T02:07:25.487Z,15.84
2018-05-17T02:09:52.875Z,15.91
2018-05-17T02:12:20.281Z,15.86
2018-05-17T02:14:47.669Z,15.70
2018-05-17T02:17:15.068Z,15.63
2018-05-17T02:19:42.469Z,15.73
2018-05-17T02:22:09.862Z,15.57
2018-05-17T02:24:37.272Z,15.44
2018-05-17T02:27:04.666Z,15.42
2018-05-17T02:29:32.063Z,15.50
2018-05-17T02:31:59.457Z,15.46
2018-05-17T02:34:26.857Z,15.54
2018-05-17T02:36:54.245Z,15.37
2018-05-17T02:39:21.651Z,15.42
2018-05-17T02:41:49.080Z,15.44
2018-05-17T02:44:16.463Z,15.33
2018-05-17T02:46:43.863Z,15.32
2018-05-17T02:49:11.292Z,15.14
2018-05-17T02:51:38.662Z,15.12
2018-05-17T02:54:06.043Z,15.03
2018-05-17T02:56:33.431Z,14.95
2018-05-17T02:59:00.833Z,14.88
2018-05-17T03:01:28.220Z,14.88
2018-05-17T03:03:55.611Z,14.96
2018-05-17T03:06:23.017Z,14.90
2018-05-17T03:08:50.411Z,14.90
2018-05-17T03:11:17.795Z,14.87
2018-05-17T03:13:45.192Z,14.91
2018-05-17T03:16:12.594Z,14.83
2018-05-17T03:18:40.013Z,14.70
2018-05-17T03:21:07.403Z,14.79
2018-05-17T03:23:34.805Z,14.85
2018-05-17T03:26:02.235Z,14.77
2018-05-17T03:28:29.621Z,14.75
2018-05-17T03:30:57.012Z,14.56
2018-05-17T03:33:24.433Z,14.58
2018-05-17T03:35:51.840Z,14.67
2018-05-17T03:38:19.408Z,14.60
2018-05-17T03:40:46.675Z,14.49
2018-05-17T03:43:14.067Z,14.44
2018-05-17T03:45:41.460Z,14.47
2018-05-17T03:48:08.842Z,14.42
2018-05-17T03:50:36.292Z,14.35
2018-05-17T03:53:03.679Z,14.35
2018-05-17T03:55:31.075Z,14.37
2018-05-17T03:57:58.475Z,14.37
2018-05-17T04:00:26.606Z,14.40
2018-05-17T04:03:05.825Z,14.32
2018-05-17T04:05:45.178Z,14.17
2018-05-17T04:08:12.558Z,14.27
2018-05-17T04:10:39.961Z,14.40
2018-05-17T04:13:07.342Z,14.41
2018-05-17T04:15:34.735Z,14.30
2018-05-17T04:18:02.143Z,14.30
2018-05-17T04:20:29.533Z,14.13
2018-05-17T04:22:56.927Z,14.20
2018-05-17T04:25:24.323Z,14.11
2018-05-17T04:27:51.703Z,14.00
2018-05-17T04:30:19.095Z,13.98
2018-05-17T04:32:46.477Z,13.96
2018-05-17T04:35:13.868Z,13.98
2018-05-17T04:37:41.270Z,13.99
2018-05-17T04:40:08.659Z,13.98
2018-05-17T04:42:36.048Z,13.92
2018-05-17T04:45:03.460Z,13.86
2018-05-17T04:47:30.872Z,13.83
2018-05-17T04:49:58.255Z,13.76
2018-05-17T04:52:25.646Z,13.81
2018-05-17T04:54:53.028Z,13.82
2018-05-17T04:57:20.418Z,13.90
2018-05-17T04:59:47.804Z,13.92
2018-05-17T05:02:15.193Z,14.00
2018-05-17T05:04:42.579Z,14.00
2018-05-17T05:07:09.997Z,14.06
2018-05-17T05:09:37.371Z,13.91
2018-05-17T05:12:04.765Z,13.97
2018-05-17T05:14:32.153Z,13.94
2018-05-17T05:16:59.554Z,13.97
2018-05-17T05:19:26.940Z,14.05
2018-05-17T05:21:54.335Z,14.01
2018-05-17T05:24:21.715Z,13.71
2018-05-17T05:26:49.104Z,13.70
2018-05-17T05:29:16.811Z,13.65
2018-05-17T05:31:44.219Z,13.76
2018-05-17T05:34:11.599Z,13.74
2018-05-17T05:36:38.979Z,13.82
2018-05-17T05:39:06.401Z,13.71
2018-05-17T05:41:33.793Z,13.82
2018-05-17T05:44:01.175Z,13.71
2018-05-17T05:46:28.559Z,13.64
2018-05-17T05:48:55.952Z,13.71
2018-05-17T05:51:23.331Z,13.77
2018-05-17T05:53:50.727Z,13.63
2018-05-17T05:56:18.124Z,13.72
2018-05-17T05:58:45.507Z,13.58
2018-05-17T06:01:12.888Z,13.57
2018-05-17T06:03:51.025Z,13.46
2018-05-17T06:06:19.577Z,13.48
2018-05-17T06:08:55.051Z,13.50
2018-05-17T06:11:30.365Z,13.64
2018-05-17T06:14:01.394Z,13.55
2018-05-17T06:16:29.036Z,13.67
2018-05-17T06:18:57.347Z,13.73
2018-05-17T06:21:24.785Z,13.65
2018-05-17T06:23:55.877Z,13.53
2018-05-17T06:26:24.936Z,13.65
2018-05-17T06:28:52.459Z,13.74
2018-05-17T06:31:19.857Z,13.84
2018-05-17T06:33:47.248Z,13.58
2018-05-17T06:36:14.619Z,13.48
2018-05-17T06:38:42.013Z,13.55
2018-05-17T06:41:09.991Z,13.48
2018-05-17T06:43:37.370Z,13.60
2018-05-17T06:46:04.768Z,13.82
2018-05-17T06:48:32.173Z,13.94
2018-05-17T06:50:59.564Z,13.78
2018-05-17T06:53:26.952Z,13.95
2018-05-17T06:55:54.360Z,13.90
2018-05-17T06:58:21.749Z,13.95
2018-05-17T07:00:49.214Z,13.99
2018-05-17T07:03:16.516Z,13.71
2018-05-17T07:05:43.935Z,14.02
2018-05-17T07:08:11.971Z,13.79
2018-05-17T07:10:39.352Z,13.94
2018-05-17T07:13:07.377Z,14.04
2018-05-17T07:15:34.785Z,13.96
2018-05-17T07:18:02.326Z,14.00
2018-05-17T07:20:29.555Z,14.02
2018-05-17T07:22:56.946Z,13.88
2018-05-17T07:25:24.333Z,13.72
2018-05-17T07:27:51.720Z,13.61
2018-05-17T07:30:19.105Z,13.82
2018-05-17T07:46:31.018Z,13.93
2018-05-17T07:48:58.397Z,13.80
2018-05-17T07:51:25.810Z,13.59
2018-05-17T07:53:53.233Z,13.63
2018-05-17T07:56:20.640Z,13.64
2018-05-17T07:58:48.019Z,13.77
2018-05-17T08:01:15.416Z,13.97
2018-05-17T08:03:42.808Z,13.80
2018-05-17T08:06:10.195Z,13.92
2018-05-17T08:08:37.590Z,13.78
2018-05-17T08:11:04.984Z,13.85
2018-05-17T08:13:32.365Z,13.98
2018-05-17T08:15:59.789Z,14.19
2018-05-17T08:18:27.173Z,14.20
2018-05-17T08:20:54.571Z,14.20
2018-05-17T08:23:21.959Z,14.36
2018-05-17T08:25:49.351Z,14.13
2018-05-17T08:28:16.758Z,14.36
2018-05-17T08:30:44.136Z,14.19
2018-05-17T08:33:11.557Z,14.50
2018-05-17T08:35:38.943Z,14.38
2018-05-17T08:38:06.344Z,14.67
2018-05-17T08:40:33.746Z,14.40
2018-05-17T08:43:01.155Z,14.47
2018-05-17T08:45:28.543Z,14.58
2018-05-17T08:47:55.923Z,14.64
2018-05-17T08:50:23.308Z,14.91
2018-05-17T08:52:50.699Z,14.92
2018-05-17T08:55:18.101Z,14.80
2018-05-17T08:57:45.492Z,15.00
2018-05-17T09:00:12.871Z,15.01
2018-05-17T09:02:40.303Z,15.07
2018-05-17T09:05:07.686Z,15.30
2018-05-17T09:07:35.076Z,15.29
2018-05-17T09:10:02.468Z,15.34
2018-05-17T09:12:29.900Z,15.14
2018-05-17T09:14:57.236Z,15.42
2018-05-17T09:17:25.276Z,15.61
2018-05-17T09:19:52.676Z,15.90
2018-05-17T09:22:20.065Z,15.72
2018-05-17T09:24:47.458Z,15.71
2018-05-17T09:27:14.835Z,16.21
2018-05-17T09:29:42.235Z,16.15
2018-05-17T09:32:09.619Z,16.09
2018-05-17T09:34:37.013Z,16.32
2018-05-17T09:37:04.401Z,16.43
2018-05-17T09:39:31.794Z,16.57
2018-05-17T09:41:59.180Z,16.74
2018-05-17T09:44:26.577Z,16.61
2018-05-17T09:46:53.957Z,16.80
2018-05-17T09:49:21.372Z,16.83
2018-05-17T09:51:48.747Z,16.96
2018-05-17T09:54:16.152Z,16.85
2018-05-17T09:56:43.532Z,17.41
2018-05-17T09:59:10.928Z,17.59
2018-05-17T10:01:38.308Z,18.01
2018-05-17T10:04:05.721Z,18.10
2018-05-17T10:06:33.104Z,18.16
2018-05-17T10:09:00.593Z,18.32
2018-05-17T10:11:27.897Z,18.40
2018-05-17T10:13:55.299Z,17.50
2018-05-17T10:16:22.680Z,17.95
2018-05-17T10:18:50.093Z,17.90
2018-05-17T10:21:17.596Z,17.87
2018-05-17T10:23:45.016Z,17.80
2018-05-17T10:26:12.420Z,17.68
2018-05-17T10:28:39.807Z,17.57
2018-05-17T10:31:07.202Z,17.68
2018-05-17T10:33:34.584Z,17.65
2018-05-17T10:36:01.983Z,17.18
2018-05-17T10:38:29.368Z,17.25
2018-05-17T10:40:56.765Z,17.44
2018-05-17T10:43:24.167Z,17.51
2018-05-17T10:45:51.568Z,17.72
2018-05-17T10:48:18.955Z,17.96
2018-05-17T10:50:46.352Z,18.15
2018-05-17T10:53:13.742Z,17.95
2018-05-17T10:55:41.289Z,17.89
2018-05-17T10:58:08.663Z,17.51
2018-05-17T11:00:36.047Z,17.41
2018-05-17T11:03:03.468Z,17.63
2018-05-17T11:05:30.844Z,17.93
2018-05-17T11:07:58.234Z,17.99
2018-05-17T11:10:25.620Z,17.87
2018-05-17T11:12:53.056Z,17.80
2018-05-17T11:15:20.454Z,17.87
2018-05-17T11:17:47.821Z,17.85
2018-05-17T11:20:15.226Z,17.70
2018-05-17T11:22:42.620Z,17.94
2018-05-17T11:25:09.996Z,18.14
2018-05-17T11:27:37.400Z,18.30
2018-05-17T11:30:04.785Z,18.25
2018-05-17T11:32:32.177Z,18.09
2018-05-17T11:34:59.565Z,18.14
2018-05-17T11:37:26.957Z,18.05
2018-05-17T11:39:54.327Z,18.03
2018-05-17T11:42:21.711Z,18.22
2018-05-17T11:44:49.119Z,18.45
2018-05-17T11:47:16.521Z,18.14
2018-05-17T11:49:43.935Z,18.22
2018-05-17T11:52:11.322Z,18.43
2018-05-17T11:54:38.706Z,18.52
2018-05-17T11:57:06.091Z,18.82
2018-05-17T11:59:33.508Z,18.47
2018-05-17T12:02:00.904Z,18.79
2018-05-17T12:04:28.289Z,18.61
2018-05-17T12:06:58.492Z,18.65
2018-05-17T12:09:32.671Z,18.93
2018-05-17T12:12:01.667Z,19.25
2018-05-17T12:14:32.409Z,19.18
2018-05-17T12:17:01.135Z,18.97
2018-05-17T12:19:29.355Z,19.15
2018-05-17T12:22:02.706Z,19.05
2018-05-17T12:24:31.352Z,18.65
2018-05-17T12:27:00.351Z,18.72
2018-05-17T12:29:29.559Z,19.01
2018-05-17T12:31:59.814Z,19.15
2018-05-17T12:34:27.495Z,19.21
2018-05-17T12:37:00.345Z,19.22
2018-05-17T12:39:29.661Z,19.16
2018-05-17T12:41:58.032Z,19.32
2018-05-17T12:44:25.647Z,19.12
2018-05-17T12:46:53.195Z,19.23
2018-05-17T12:49:22.688Z,19.50
2018-05-17T12:51:51.074Z,19.59
2018-05-17T12:54:20.392Z,19.62
2018-05-17T12:56:49.217Z,19.88
2018-05-17T12:59:17.547Z,20.02
2018-05-17T13:01:44.948Z,20.08
2018-05-17T13:04:12.335Z,19.95
2018-05-17T13:06:39.746Z,19.88
2018-05-17T13:09:07.996Z,19.94
2018-05-17T13:11:35.391Z,19.72
2018-05-17T13:14:02.785Z,19.69
2018-05-17T13:16:30.167Z,19.66
2018-05-17T13:18:57.560Z,19.85
2018-05-17T13:21:24.936Z,19.79
2018-05-17T13:23:52.324Z,19.73
2018-05-17T13:26:19.712Z,19.61
2018-05-17T13:28:47.104Z,19.79
2018-05-17T13:31:14.492Z,19.68
2018-05-17T13:33:41.891Z,19.76
2018-05-17T13:36:10.376Z,19.84
2018-05-17T13:38:37.787Z,19.75
2018-05-17T13:41:05.172Z,19.83
2018-05-17T13:43:32.553Z,19.87
2018-05-17T13:45:59.958Z,20.13
2018-05-17T13:48:27.338Z,20.28
2018-05-17T13:50:54.728Z,20.26
2018-05-17T13:53:22.112Z,20.43
2018-05-17T13:55:49.508Z,20.08
2018-05-17T13:58:16.886Z,20.14
2018-05-17T14:00:44.303Z,20.16
2018-05-17T14:03:11.675Z,20.33
2018-05-17T14:05:39.077Z,20.27
2018-05-17T14:08:06.463Z,20.46
2018-05-17T14:10:33.867Z,20.72
2018-05-17T14:13:01.273Z,21.05
2018-05-17T14:15:28.674Z,21.17
2018-05-17T14:17:56.053Z,20.88
2018-05-17T14:20:23.437Z,20.52
2018-05-17T14:22:50.816Z,20.50
2018-05-17T14:25:18.211Z,20.75
2018-05-17T14:27:45.609Z,20.90
2018-05-17T14:30:13.000Z,20.85
2018-05-17T14:32:40.384Z,20.90
2018-05-17T14:35:07.796Z,20.59
2018-05-17T14:37:35.194Z,20.80
2018-05-17T14:40:02.577Z,20.92
2018-05-17T14:42:29.964Z,20.94
2018-05-17T14:44:57.351Z,21.17
2018-05-17T14:47:24.744Z,21.08
2018-05-17T14:49:52.124Z,21.24
2018-05-17T14:52:19.512Z,21.28
2018-05-17T14:54:46.906Z,21.49
2018-05-17T14:57:14.298Z,21.54
2018-05-17T14:59:41.690Z,21.17
2018-05-17T15:02:09.100Z,21.22
2018-05-17T15:04:36.479Z,21.49
2018-05-17T15:07:03.881Z,21.36
2018-05-17T15:09:31.288Z,21.27
2018-05-17T15:17:40.375Z,21.22
2018-05-17T15:20:07.781Z,21.31
2018-05-17T15:22:35.173Z,21.30
2018-05-17T15:25:02.572Z,21.63
2018-05-17T15:27:30.094Z,21.74
2018-05-17T15:29:57.391Z,21.41
2018-05-17T15:32:24.752Z,21.21
2018-05-17T15:34:52.161Z,21.22
2018-05-17T15:37:20.303Z,21.25
2018-05-17T15:39:48.337Z,20.94
2018-05-17T15:42:15.728Z,21.03
2018-05-17T15:44:43.115Z,21.07
2018-05-17T15:47:11.102Z,21.35
2018-05-17T15:49:38.497Z,21.45
2018-05-17T15:52:05.889Z,21.57
2018-05-17T15:54:33.261Z,21.67
2018-05-17T15:57:00.654Z,21.58
2018-05-17T15:59:28.043Z,21.47
2018-05-17T16:01:55.432Z,21.47
2018-05-17T16:04:22.823Z,21.52
2018-05-17T16:06:50.200Z,21.41
2018-05-17T16:09:17.595Z,21.26
2018-05-17T16:11:44.980Z,21.22
2018-05-17T16:14:12.385Z,21.16
2018-05-17T16:16:39.763Z,21.20
2018-05-17T16:19:07.175Z,21.29
2018-05-17T16:21:34.563Z,21.04
2018-05-17T16:24:01.948Z,20.96
2018-05-17T16:26:29.324Z,20.83
2018-05-17T16:28:56.721Z,20.56
2018-05-17T16:31:24.098Z,20.78
2018-05-17T16:33:51.486Z,20.72
2018-05-17T16:36:18.869Z,20.53
2018-05-17T16:38:46.259Z,20.73
2018-05-17T16:41:13.654Z,20.91
2018-05-17T16:43:41.045Z,21.05
2018-05-17T16:46:08.444Z,20.99
2018-05-17T16:48:35.918Z,20.58
2018-05-17T16:51:03.215Z,20.56
2018-05-17T16:53:30.620Z,20.72
2018-05-17T16:55:58.002Z,20.51
2018-05-17T16:58:25.382Z,20.68
2018-05-17T17:00:53.136Z,20.60
2018-05-17T17:03:20.521Z,20.70
2018-05-17T17:05:47.906Z,20.79
2018-05-17T17:08:15.297Z,21.02
2018-05-17T17:10:43.211Z,21.22
2018-05-17T17:13:10.611Z,21.44
2018-05-17T17:15:38.017Z,21.72
2018-05-17T17:18:05.396Z,21.73
2018-05-17T17:20:32.792Z,21.49
2018-05-17T17:23:00.180Z,21.50
2018-05-17T17:25:27.583Z,21.62
2018-05-17T17:27:54.964Z,22.05
2018-05-17T17:30:22.356Z,22.08
2018-05-17T17:32:49.739Z,21.95
2018-05-17T17:35:17.131Z,21.98
2018-05-17T17:37:44.530Z,21.29
2018-05-17T17:40:11.908Z,21.18
2018-05-17T17:42:39.283Z,20.79
2018-05-17T17:45:06.683Z,20.50
2018-05-17T17:47:34.075Z,20.24
2018-05-17T17:50:01.549Z,20.38
2018-05-17T17:52:28.856Z,19.97
2018-05-17T17:54:56.266Z,20.08
2018-05-17T17:57:23.643Z,19.81
2018-05-17T17:59:51.038Z,19.53
2018-05-17T18:02:18.425Z,19.38
2018-05-17T18:04:45.803Z,19.31
2018-05-17T18:07:13.199Z,19.32
2018-05-17T18:09:40.588Z,19.18
2018-05-17T18:12:07.965Z,19.35
2018-05-17T18:14:35.361Z,19.18
2018-05-17T18:17:02.769Z,19.15
2018-05-17T18:19:30.149Z,18.97
2018-05-17T18:21:57.549Z,19.05
2018-05-17T18:24:24.919Z,18.81
2018-05-17T18:26:52.318Z,18.93
2018-05-17T18:29:19.698Z,18.94
2018-05-17T18:31:47.096Z,18.60
2018-05-17T18:34:14.476Z,18.62
2018-05-17T18:36:41.939Z,18.59
2018-05-17T18:39:09.239Z,18.40
2018-05-17T18:41:36.623Z,18.54
2018-05-17T18:44:04.008Z,18.64
2018-05-17T18:46:31.409Z,18.40
2018-05-17T18:48:58.862Z,18.29
2018-05-17T18:51:26.220Z,18.28
2018-05-17T18:53:53.648Z,18.17
2018-05-17T18:56:21.027Z,18.15
2018-05-17T18:58:48.417Z,17.91
2018-05-17T19:01:15.828Z,18.04
2018-05-17T19:03:43.219Z,17.95
2018-05-17T19:06:10.600Z,17.94
2018-05-17T19:08:38.019Z,17.60
2018-05-17T19:11:05.390Z,17.56
2018-05-17T19:13:32.772Z,17.48
2018-05-17T19:16:00.152Z,17.47
2018-05-17T19:18:27.559Z,17.21
2018-05-17T19:20:54.949Z,17.14
2018-05-17T19:23:22.334Z,17.07
2018-05-17T19:25:49.819Z,17.08
2018-05-17T19:28:17.108Z,17.20
2018-05-17T19:30:44.484Z,17.01
2018-05-17T19:33:11.876Z,17.26
2018-05-17T19:35:39.281Z,17.20
2018-05-17T19:38:06.664Z,17.10
2018-05-17T19:40:34.063Z,17.09
2018-05-17T19:43:01.468Z,17.06
2018-05-17T19:45:28.877Z,17.04
2018-05-17T19:47:56.260Z,16.89
2018-05-17T19:50:23.679Z,16.92
2018-05-17T19:52:51.079Z,17.02
2018-05-17T19:55:18.449Z,16.97
2018-05-17T19:57:45.933Z,16.80
2018-05-17T20:00:13.324Z,16.68
2018-05-17T20:02:40.715Z,16.69
2018-05-17T20:05:08.103Z,16.69
2018-05-17T20:07:35.509Z,16.74
2018-05-17T20:10:02.884Z,16.69
2018-05-17T20:12:30.275Z,16.52
2018-05-17T20:14:57.671Z,16.58
2018-05-17T20:17:25.058Z,16.62
2018-05-17T20:19:52.440Z,16.38
2018-05-17T20:22:19.822Z,16.42
2018-05-17T20:24:47.230Z,16.49
2018-05-17T20:27:14.713Z,16.54
2018-05-17T20:29:42.028Z,16.43
2018-05-17T20:32:09.416Z,16.42
2018-05-17T20:34:36.813Z,16.34
2018-05-17T20:37:04.207Z,16.14
2018-05-17T20:39:31.602Z,16.23
2018-05-17T20:41:58.984Z,16.18
2018-05-17T20:44:26.372Z,16.27
2018-05-17T20:46:53.764Z,16.15
2018-05-17T20:49:21.153Z,16.04
2018-05-17T20:51:48.543Z,16.02
2018-05-17T20:54:16.024Z,16.01
2018-05-17T20:56:43.420Z,15.95
2018-05-17T20:59:10.858Z,15.96
2018-05-17T21:01:38.247Z,15.97
2018-05-17T21:04:05.644Z,15.90
2018-05-17T21:06:33.044Z,15.72
2018-05-17T21:09:00.418Z,15.65
2018-05-17T21:11:27.803Z,15.59
2018-05-17T21:13:55.204Z,15.54
2018-05-17T21:16:22.591Z,15.54
2018-05-17T21:18:49.976Z,15.46
2018-05-17T21:21:17.374Z,15.44
2018-05-17T21:23:44.748Z,15.31
2018-05-17T21:26:12.137Z,15.30
2018-05-17T21:28:39.515Z,15.30
2018-05-17T21:31:06.908Z,15.14
2018-05-17T21:33:34.283Z,14.86
2018-05-17T21:36:01.697Z,14.99
2018-05-17T21:38:29.068Z,14.98
2018-05-17T21:40:56.469Z,14.87
2018-05-17T21:43:23.849Z,14.91
2018-05-17T21:45:51.240Z,14.84
2018-05-17T21:48:18.675Z,14.56
2018-05-17T21:50:46.072Z,14.46
2018-05-17T21:53:13.468Z,14.36
2018-05-17T21:55:40.888Z,14.43
2018-05-17T21:58:08.275Z,14.24
2018-05-17T22:00:35.696Z,13.97
2018-05-17T22:03:03.089Z,13.97
2018-05-17T22:05:30.855Z,13.84
2018-05-17T22:08:07.289Z,13.72
2018-05-17T22:10:36.109Z,13.45
2018-05-17T22:13:23.969Z,13.52
2018-05-17T22:16:00.394Z,13.18
2018-05-17T22:18:42.547Z,12.92
2018-05-17T22:24:06.372Z,12.89
2018-05-17T22:26:40.687Z,13.00
2018-05-17T22:29:10.347Z,13.13
2018-05-17T22:31:42.355Z,13.19
2018-05-17T22:34:12.923Z,12.77
2018-05-17T22:36:40.984Z,12.74
2018-05-17T22:39:11.187Z,12.91
2018-05-17T22:41:40.362Z,12.49
2018-05-17T22:44:12.271Z,12.47
2018-05-17T22:46:45.967Z,12.51
2018-05-17T22:49:28.411Z,12.52
2018-05-17T22:52:00.496Z,12.45
2018-05-17T22:54:29.952Z,12.47
2018-05-17T22:57:12.825Z,12.19
2018-05-17T23:02:29.968Z,12.24
2018-05-17T23:04:57.669Z,12.30
2018-05-17T23:07:27.491Z,12.17
2018-05-17T23:09:59.217Z,12.00
2018-05-17T23:12:28.326Z,12.01
2018-05-17T23:14:56.559Z,11.91
2018-05-17T23:17:32.031Z,12.07
2018-05-17T23:20:01.180Z,11.94
2018-05-17T23:22:35.952Z,11.86
2018-05-17T23:25:04.317Z,11.75
2018-05-17T23:27:32.675Z,11.78
2018-05-17T23:30:00.560Z,11.72
2018-05-17T23:32:30.200Z,11.79
2018-05-17T23:34:57.747Z,11.47
2018-05-17T23:37:25.840Z,11.36
2018-05-17T23:39:54.721Z,11.32
2018-05-17T23:42:24.587Z,11.36
2018-05-17T23:44:53.137Z,11.33
2018-05-17T23:47:22.203Z,11.22
2018-05-17T23:49:52.619Z,11.08
2018-05-17T23:52:20.112Z,10.97
2018-05-17T23:54:48.669Z,10.94
2018-05-17T23:57:17.377Z,11.13
2018-05-17T23:59:50.725Z,11.16
